Time;durP1;ratioP1;P1;durP2;ratioP2;P2;SDS_P1;SDS_P2;PMS_P1;PMS_P2;Temp;Humidity;BMP_temperature;BMP_pressure;BME280_temperature;BME280_humidity;BME280_pressure;Samples;Min_cycle;Max_cycle;Signal;HPM_P1;HPM_P2
2022/04/21 00:00:23;;;;;;;3.50;2.80;;;;;;;8.76;59.72;100237.84;4968521;28;20480;-79
2022/04/21 00:02:50;;;;;;;3.10;2.80;;;;;;;8.67;60.24;100243.97;4981143;28;20816;-79
2022/04/21 00:05:17;;;;;;;4.80;4.07;;;;;;;8.63;60.21;100237.22;4980123;28;20535;-77
2022/04/21 00:07:47;;;;;;;3.83;3.37;;;;;;;8.52;60.74;100239.91;4980379;28;20516;-77
2022/04/21 00:10:14;;;;;;;3.30;2.87;;;;;;;8.46;61.25;100244.78;4980262;28;21083;-77
2022/04/21 00:12:40;;;;;;;5.10;2.83;;;;;;;8.43;61.31;100236.19;4980465;28;20449;-78
2022/04/21 00:15:10;;;;;;;4.27;3.10;;;;;;;8.34;61.73;100237.75;4980384;28;21210;-78
2022/04/21 00:17:37;;;;;;;7.63;2.60;;;;;;;8.26;62.18;100234.88;4980848;28;20452;-78
2022/04/21 00:20:04;;;;;;;2.97;2.67;;;;;;;8.33;61.73;100233.41;4974320;28;20483;-78
2022/04/21 00:25:14;;;;;;;4.80;2.73;;;;;;;8.33;61.77;100229.91;4980694;28;20435;-77
2022/04/21 00:27:42;;;;;;;4.03;2.67;;;;;;;8.32;61.71;100228.22;4980332;28;20457;-79
2022/04/21 00:30:12;;;;;;;3.67;2.70;;;;;;;8.30;62.40;100226.53;4980194;28;20492;-79
2022/04/21 00:32:40;;;;;;;4.50;3.63;;;;;;;8.29;62.08;100230.13;4982335;28;20439;-80
2022/04/21 00:35:08;;;;;;;8.43;3.13;;;;;;;8.29;62.04;100224.81;4981241;28;20429;-78
2022/04/21 00:37:44;;;;;;;3.20;2.77;;;;;;;8.39;61.83;100227.56;4981662;28;20464;-79
2022/04/21 00:40:11;;;;;;;7.50;2.57;;;;;;;8.54;61.39;100225.50;4979375;28;20476;-79
2022/04/21 00:42:38;;;;;;;3.03;2.73;;;;;;;8.54;61.37;100222.84;4981470;28;20511;-80
2022/04/21 00:45:06;;;;;;;3.40;2.10;;;;;;;8.46;61.68;100220.78;4980980;28;20516;-79
2022/04/21 00:47:34;;;;;;;3.10;2.80;;;;;;;8.41;61.75;100216.78;4979847;28;20546;-79
2022/04/21 00:50:00;;;;;;;3.87;3.47;;;;;;;8.31;62.14;100222.03;4980496;28;20488;-78
2022/04/21 00:52:27;;;;;;;3.80;3.10;;;;;;;8.27;62.10;100226.75;4981793;28;20480;-79
2022/04/21 00:54:54;;;;;;;5.33;2.50;;;;;;;8.21;62.64;100219.28;4982347;28;20443;-79
2022/04/21 00:57:22;;;;;;;3.13;2.67;;;;;;;8.14;63.19;100214.59;4981122;28;20484;-79
2022/04/21 00:59:48;;;;;;;4.60;2.63;;;;;;;8.10;63.28;100209.50;4978499;28;20499;-80
2022/04/21 01:05:01;;;;;;;5.20;2.77;;;;;;;7.98;63.70;100209.66;4985510;28;20520;-80
2022/04/21 01:07:27;;;;;;;3.13;2.07;;;;;;;7.91;64.44;100217.31;4983520;28;20864;-80
2022/04/21 01:09:55;;;;;;;3.03;2.70;;;;;;;7.86;64.62;100200.84;4974630;28;21141;-80
2022/04/21 01:12:23;;;;;;;3.67;3.30;;;;;;;7.81;64.78;100208.38;4984757;28;20472;-79
2022/04/21 01:14:49;;;;;;;4.13;3.30;;;;;;;7.78;65.01;100209.47;4984977;28;20452;-77
2022/04/21 01:17:16;;;;;;;3.73;3.03;;;;;;;7.79;64.74;100205.00;4984904;28;20480;-77
2022/04/21 01:19:43;;;;;;;2.73;2.53;;;;;;;7.76;64.70;100203.44;4982605;28;20452;-77
2022/04/21 01:22:11;;;;;;;4.87;2.87;;;;;;;7.73;64.79;100201.00;4984296;28;20484;-77
2022/04/21 01:24:38;;;;;;;3.93;3.20;;;;;;;7.73;64.79;100196.53;4985550;28;20948;-78
2022/04/21 01:27:05;;;;;;;3.20;2.40;;;;;;;7.74;64.60;100200.03;4983875;28;20555;-78
2022/04/21 01:29:32;;;;;;;4.00;2.60;;;;;;;7.76;64.47;100200.78;4983707;28;20515;-78
2022/04/21 01:31:58;;;;;;;4.87;3.13;;;;;;;7.75;64.51;100200.91;4984280;28;20492;-79
2022/04/21 01:34:25;;;;;;;3.10;2.53;;;;;;;7.74;64.53;100197.38;4985161;28;20466;-78
2022/04/21 01:42:21;;;;;;;4.53;2.97;;;;;;;7.70;64.82;100182.63;4983692;28;20482;-79
2022/04/21 01:44:48;;;;;;;4.40;3.10;;;;;;;7.58;65.19;100178.28;4983729;28;20823;-79
2022/04/21 01:47:14;;;;;;;4.10;2.60;;;;;;;7.55;65.58;100179.38;4983547;28;20476;-78
2022/04/21 01:49:41;;;;;;;4.80;2.57;;;;;;;7.52;65.55;100172.50;4965590;28;20524;-78
2022/04/21 01:52:08;;;;;;;3.73;2.47;;;;;;;7.47;65.89;100177.34;4981125;28;20484;-78
2022/04/21 01:54:35;;;;;;;4.07;3.03;;;;;;;7.46;65.95;100175.63;4983613;28;20472;-78
2022/04/21 01:57:03;;;;;;;3.37;2.73;;;;;;;7.42;65.99;100171.53;4983468;28;20964;-79
2022/04/21 01:59:30;;;;;;;6.20;2.70;;;;;;;7.38;66.26;100172.75;4974176;28;20948;-78
2022/04/21 02:01:56;;;;;;;5.00;3.10;;;;;;;7.33;66.55;100174.94;4984230;28;20560;-77
2022/04/21 02:04:23;;;;;;;4.90;2.30;;;;;;;7.23;67.08;100168.66;4984555;28;20445;-77
2022/04/21 02:06:50;;;;;;;4.23;2.90;;;;;;;7.16;67.49;100165.63;4983858;28;20564;-77
2022/04/21 02:09:17;;;;;;;3.63;3.20;;;;;;;7.14;67.57;100164.91;4982761;28;20452;-77
2022/04/21 02:11:44;;;;;;;4.83;3.37;;;;;;;7.08;67.49;100168.03;4983799;28;21075;-77
2022/04/21 02:14:13;;;;;;;3.60;2.93;;;;;;;6.98;68.23;100168.75;4983858;28;20440;-77
2022/04/21 02:16:40;;;;;;;4.20;3.07;;;;;;;6.92;68.50;100166.56;4982570;28;20468;-76
2022/04/21 02:19:06;;;;;;;3.90;3.07;;;;;;;6.84;68.34;100161.03;4977410;28;20458;-76
2022/04/21 02:21:33;;;;;;;4.33;3.07;;;;;;;6.76;68.96;100161.59;4978214;28;20499;-77
2022/04/21 02:24:00;;;;;;;3.43;3.10;;;;;;;6.73;69.04;100161.00;4983431;28;20515;-76
2022/04/21 02:26:26;;;;;;;4.40;3.20;;;;;;;6.71;69.02;100162.94;4982878;28;20526;-76
2022/04/21 02:28:53;;;;;;;5.00;3.80;;;;;;;6.71;68.95;100171.72;4982566;28;21004;-76
2022/04/21 02:31:21;;;;;;;4.20;3.03;;;;;;;6.69;68.92;100167.50;4980842;28;20838;-76
2022/04/21 02:33:48;;;;;;;4.20;3.40;;;;;;;6.59;69.30;100168.19;4984147;28;20801;-76
2022/04/21 02:36:14;;;;;;;4.80;4.10;;;;;;;6.52;69.83;100164.31;4982284;28;20484;-77
2022/04/21 02:38:41;;;;;;;3.50;3.20;;;;;;;6.47;70.00;100160.34;4978259;28;20504;-77
2022/04/21 02:41:07;;;;;;;5.27;3.57;;;;;;;6.46;69.75;100163.94;4973804;28;20480;-77
2022/04/21 02:43:34;;;;;;;5.30;4.23;;;;;;;6.45;70.06;100160.44;4982265;28;20448;-78
2022/04/21 02:46:01;;;;;;;3.70;3.40;;;;;;;6.41;69.90;100159.84;4981550;28;20480;-79
2022/04/21 02:48:29;;;;;;;3.83;3.53;;;;;;;6.39;70.21;100161.75;4982320;28;21046;-78
2022/04/21 02:50:56;;;;;;;5.13;4.30;;;;;;;6.30;70.98;100159.81;4981766;28;20488;-77
2022/04/21 02:57:19;;;;;;;3.40;3.10;;;;;;;6.30;70.84;100156.28;4968353;28;20837;-78
2022/04/21 02:58:53;;;;;;;5.13;4.07;;;;;;;6.21;70.50;100165.78;4944253;28;20452;-78
2022/04/21 03:01:20;;;;;;;5.53;4.23;;;;;;;6.22;70.81;100168.34;4981686;28;20812;-78
2022/04/21 03:03:48;;;;;;;5.50;4.50;;;;;;;6.18;71.01;100153.59;4982568;28;20437;-78
2022/04/21 03:06:14;;;;;;;6.77;3.83;;;;;;;6.11;71.39;100157.69;4982017;28;20518;-81
2022/04/21 03:08:41;;;;;;;4.07;3.67;;;;;;;6.10;71.60;100161.28;4979143;28;20457;-80
2022/04/21 03:11:07;;;;;;;9.50;4.47;;;;;;;6.07;71.88;100164.16;4972701;28;20515;-80
2022/04/21 03:13:34;;;;;;;7.07;3.93;;;;;;;6.07;71.82;100156.19;4982408;28;20440;-81
2022/04/21 03:16:01;;;;;;;5.50;4.20;;;;;;;6.09;71.73;100148.97;4981857;28;20507;-80
2022/04/21 03:18:27;;;;;;;5.60;4.33;;;;;;;6.11;71.69;100149.72;4981026;28;20456;-77
2022/04/21 03:26:23;;;;;;;8.43;3.80;;;;;;;6.00;72.06;100153.16;4981056;28;21090;-77
2022/04/21 03:28:50;;;;;;;4.90;3.90;;;;;;;5.97;72.06;100155.19;4981063;28;20885;-76
2022/04/21 03:31:16;;;;;;;5.73;4.77;;;;;;;5.90;72.42;100162.72;4981214;28;20515;-76
2022/04/21 03:33:43;;;;;;;6.57;4.37;;;;;;;5.84;72.51;100156.06;4982954;28;20524;-76
2022/04/21 03:36:12;;;;;;;5.10;3.90;;;;;;;5.87;72.96;100149.69;4981919;28;20473;-76
2022/04/21 03:38:39;;;;;;;5.90;4.40;;;;;;;5.84;72.76;100161.38;4979829;28;20453;-76
2022/04/21 03:41:05;;;;;;;4.53;4.10;;;;;;;5.79;72.92;100155.53;4972245;28;20488;-76
2022/04/21 03:43:32;;;;;;;9.00;4.33;;;;;;;5.76;72.98;100149.63;4981585;28;20519;-76
2022/04/21 03:45:59;;;;;;;5.93;4.30;;;;;;;5.75;73.19;100147.94;4980877;28;20472;-76
2022/04/21 03:48:26;;;;;;;5.80;4.20;;;;;;;5.75;72.87;100154.09;4981201;28;20449;-78
2022/04/21 03:50:52;;;;;;;6.03;4.30;;;;;;;5.75;72.99;100146.13;4968374;28;20485;-76
2022/04/21 03:53:20;;;;;;;5.33;4.47;;;;;;;5.69;72.94;100149.22;4982560;28;20447;-77
2022/04/21 03:55:47;;;;;;;6.47;4.27;;;;;;;5.56;73.77;100149.28;4981278;28;20472;-76
2022/04/21 03:58:14;;;;;;;6.40;5.20;;;;;;;5.51;74.18;100153.22;4982050;28;20488;-78
2022/04/21 04:00:40;;;;;;;6.50;4.97;;;;;;;5.49;74.53;100155.97;4973554;28;20487;-78
2022/04/21 04:03:07;;;;;;;4.43;4.03;;;;;;;5.45;74.80;100151.84;4982641;28;20424;-78
2022/04/21 04:05:34;;;;;;;6.90;4.73;;;;;;;5.50;74.52;100151.50;4981289;28;20476;-79
2022/04/21 04:10:55;;;;;;;7.23;4.43;;;;;;;5.57;74.01;100136.84;4979851;28;20522;-78
2022/04/21 04:13:24;;;;;;;5.60;4.60;;;;;;;5.55;74.15;100142.25;4982423;28;20463;-78
2022/04/21 04:15:53;;;;;;;6.57;4.60;;;;;;;5.62;73.89;100145.31;4980793;28;20542;-79
2022/04/21 04:18:21;;;;;;;5.67;5.00;;;;;;;5.60;73.71;100142.78;4981593;28;20511;-79
2022/04/21 04:20:48;;;;;;;6.00;4.90;;;;;;;5.67;73.69;100137.88;4977263;28;20480;-78
2022/04/21 04:23:15;;;;;;;6.80;4.83;;;;;;;5.67;73.77;100132.56;4982085;28;20436;-78
2022/04/21 04:25:42;;;;;;;5.57;5.00;;;;;;;5.69;73.88;100143.06;4980077;28;21161;-77
2022/04/21 04:28:10;;;;;;;4.97;4.30;;;;;;;5.74;73.58;100128.50;4980289;28;20525;-79
2022/04/21 04:30:38;;;;;;;7.40;4.90;;;;;;;5.79;73.27;100131.66;4976002;28;20484;-78
2022/04/21 04:33:05;;;;;;;6.70;5.03;;;;;;;5.90;73.03;100138.00;4982344;28;20515;-77
2022/04/21 04:35:32;;;;;;;4.50;4.03;;;;;;;5.95;72.76;100131.38;4981273;28;20515;-78
2022/04/21 04:37:59;;;;;;;10.90;5.17;;;;;;;6.03;72.55;100144.13;4985038;28;20514;-77
2022/04/21 04:40:26;;;;;;;12.77;6.20;;;;;;;6.11;72.28;100140.88;4979926;28;20448;-78
2022/04/21 04:42:53;;;;;;;8.17;5.00;;;;;;;6.16;71.85;100136.94;4984796;28;20475;-78
2022/04/21 04:48:06;;;;;;;7.80;5.33;;;;;;;6.31;71.26;100145.56;4985314;28;20480;-76
2022/04/21 04:50:32;;;;;;;5.73;5.03;;;;;;;6.32;71.31;100151.69;4983602;28;20539;-77
2022/04/21 04:53:00;;;;;;;8.03;4.87;;;;;;;6.55;70.65;100150.81;4985829;28;20471;-78
2022/04/21 04:55:27;;;;;;;9.80;5.50;;;;;;;6.71;70.08;100147.81;4985904;28;20499;-76
2022/04/21 04:57:54;;;;;;;12.37;4.70;;;;;;;7.06;69.36;100152.19;4985679;28;20483;-77
2022/04/21 05:00:24;;;;;;;5.83;4.20;;;;;;;7.79;67.24;100151.75;4970788;28;20464;-78
2022/04/21 05:02:51;;;;;;;5.77;4.73;;;;;;;8.89;63.64;100146.16;4985729;28;20483;-76
2022/04/21 05:05:17;;;;;;;5.23;4.60;;;;;;;9.95;59.84;100144.81;4984526;28;20924;-78
2022/04/21 05:07:44;;;;;;;6.63;4.10;;;;;;;10.35;57.56;100152.72;4985503;28;20460;-78
2022/04/21 05:10:11;;;;;;;5.23;4.07;;;;;;;10.85;55.90;100158.84;4981231;28;20519;-78
2022/04/21 05:12:37;;;;;;;10.83;4.43;;;;;;;10.78;54.44;100158.59;4985384;28;20444;-78
2022/04/21 05:15:06;;;;;;;5.77;3.73;;;;;;;11.82;52.30;100146.84;4984114;28;20733;-78
2022/04/21 05:17:35;;;;;;;5.47;3.70;;;;;;;11.33;52.87;100154.31;4984698;28;20468;-77
2022/04/21 05:20:02;;;;;;;4.43;4.00;;;;;;;10.17;56.19;100152.56;4972421;28;20705;-79
2022/04/21 05:22:37;;;;;;;5.03;4.07;;;;;;;9.02;59.56;100147.63;4983408;28;20472;-79
2022/04/21 05:25:04;;;;;;;5.43;4.17;;;;;;;8.53;61.63;100151.84;4984868;28;20460;-76
2022/04/21 05:27:32;;;;;;;4.43;3.90;;;;;;;8.93;60.70;100151.09;5002449;28;20452;-85
2022/04/21 05:32:49;;;;;;;8.60;5.37;;;;;;;9.71;57.69;100162.06;4960516;28;20460;-85
2022/04/21 05:35:18;;;;;;;5.07;3.63;;;;;;;9.89;58.02;100145.38;4984190;28;20449;-84
2022/04/21 05:37:45;;;;;;;5.30;4.80;;;;;;;10.65;55.22;100150.84;4984586;28;20460;-86
2022/04/21 05:40:13;;;;;;;5.60;4.20;;;;;;;10.95;54.04;100148.13;4983006;28;20701;-84
2022/04/21 05:42:45;;;;;;;5.00;3.83;;;;;;;10.69;54.91;100149.59;4984095;28;20499;-86
2022/04/21 05:45:13;;;;;;;7.37;4.60;;;;;;;11.67;52.67;100143.84;4983547;28;20484;-76
2022/04/21 05:47:40;;;;;;;5.47;4.03;;;;;;;12.22;50.37;100146.44;4981547;28;20461;-76
2022/04/21 05:50:10;;;;;;;6.03;3.80;;;;;;;13.09;48.24;100146.56;4982412;28;20468;-75
2022/04/21 05:52:39;;;;;;;4.93;3.93;;;;;;;11.42;50.81;100154.28;4984165;28;20961;-77
2022/04/21 05:55:07;;;;;;;6.60;4.13;;;;;;;10.33;55.16;100149.34;4981596;28;20444;-76
2022/04/21 05:57:36;;;;;;;4.13;3.53;;;;;;;10.06;56.07;100154.53;4983002;28;20444;-77
2022/04/21 06:00:03;;;;;;;6.33;4.30;;;;;;;9.14;59.34;100160.91;4982215;28;20642;-76
2022/04/21 06:02:30;;;;;;;4.47;4.07;;;;;;;8.81;60.16;100165.50;4982823;28;20890;-76
2022/04/21 06:04:59;;;;;;;4.67;3.90;;;;;;;8.52;61.92;100159.97;4981487;28;20969;-76
2022/04/21 06:07:27;;;;;;;8.37;4.10;;;;;;;8.66;61.65;100163.16;4982029;28;20892;-77
2022/04/21 06:09:54;;;;;;;4.60;4.20;;;;;;;8.83;60.91;100161.69;4983004;28;20488;-77
2022/04/21 06:12:20;;;;;;;5.43;4.57;;;;;;;8.60;61.39;100157.50;4988870;28;20472;-77
2022/04/21 06:14:47;;;;;;;5.03;4.40;;;;;;;8.47;61.09;100158.56;4978008;28;20465;-75
2022/04/21 06:17:14;;;;;;;5.43;3.83;;;;;;;8.61;61.74;100160.03;4983118;28;20511;-75
2022/04/21 06:19:40;;;;;;;9.67;5.00;;;;;;;8.55;61.44;100163.22;4994457;28;21009;-75
2022/04/21 06:22:07;;;;;;;5.03;4.23;;;;;;;7.93;62.99;100164.78;4982603;28;20476;-75
2022/04/21 06:24:35;;;;;;;5.07;4.57;;;;;;;7.87;63.82;100171.47;4982740;28;20444;-78
2022/04/21 06:27:03;;;;;;;5.70;4.70;;;;;;;7.73;64.05;100169.09;4982742;28;20996;-76
2022/04/21 06:29:30;;;;;;;5.03;4.53;;;;;;;7.96;63.35;100171.69;4982950;28;20480;-76
2022/04/21 06:31:57;;;;;;;6.87;5.53;;;;;;;7.50;64.80;100162.97;4982115;28;20587;-76
2022/04/21 06:34:23;;;;;;;8.30;4.70;;;;;;;7.75;64.21;100160.97;4975871;28;20457;-76
2022/04/21 06:36:50;;;;;;;7.23;4.60;;;;;;;7.44;64.56;100168.75;4983893;28;20516;-76
2022/04/21 06:39:17;;;;;;;6.33;4.60;;;;;;;8.05;63.32;100168.25;4982840;28;20479;-75
2022/04/21 06:41:45;;;;;;;6.90;4.90;;;;;;;8.70;61.28;100165.53;4982226;28;20476;-76
2022/04/21 06:49:54;;;;;;;5.90;5.30;;;;;;;9.50;59.02;100162.16;4922573;29;20455;-76
2022/04/21 06:52:21;;;;;;;4.77;4.27;;;;;;;10.44;56.06;100155.53;4922831;29;20483;-75
2022/04/21 06:54:48;;;;;;;8.67;4.87;;;;;;;10.58;55.60;100160.44;4947908;28;20523;-75
2022/04/21 06:57:17;;;;;;;6.83;4.77;;;;;;;13.30;48.43;100164.13;4982052;28;20477;-75
2022/04/21 06:59:43;;;;;;;8.17;5.17;;;;;;;14.72;44.61;100157.03;4982605;28;20930;-75
2022/04/21 07:02:12;;;;;;;5.30;4.00;;;;;;;14.54;44.22;100151.81;4980790;28;20952;-75
2022/04/21 07:04:39;;;;;;;6.23;4.37;;;;;;;15.54;42.15;100149.59;4983233;28;20464;-75
2022/04/21 07:07:05;;;;;;;5.20;4.13;;;;;;;14.39;43.61;100154.34;4981827;28;20482;-76
2022/04/21 07:09:32;;;;;;;8.23;3.57;;;;;;;14.83;42.77;100154.03;4982785;28;20911;-75
2022/04/21 07:11:59;;;;;;;5.67;3.40;;;;;;;15.27;41.16;100147.34;4981135;28;20507;-76
2022/04/21 07:14:27;;;;;;;7.50;3.53;;;;;;;14.85;41.74;100144.75;4981968;28;20523;-74
2022/04/21 07:16:58;;;;;;;6.30;4.10;;;;;;;13.50;45.66;100165.56;4981270;28;20996;-75
2022/04/21 07:19:24;;;;;;;6.13;3.63;;;;;;;11.44;50.01;100148.75;4977271;28;20446;-75
2022/04/21 07:21:51;;;;;;;5.23;4.20;;;;;;;11.50;50.83;100157.03;4962478;28;20481;-75
2022/04/21 07:24:18;;;;;;;8.03;4.57;;;;;;;11.50;51.92;100156.19;4963647;29;20425;-75
2022/04/21 07:26:44;;;;;;;8.43;5.13;;;;;;;10.71;53.52;100168.16;4962309;28;20532;-74
2022/04/21 07:29:11;;;;;;;6.13;4.77;;;;;;;10.58;54.17;100151.59;4964371;28;20448;-75
2022/04/21 07:31:40;;;;;;;5.53;4.33;;;;;;;10.16;54.60;100152.72;4962268;28;20537;-76
2022/04/21 07:34:07;;;;;;;5.23;3.80;;;;;;;10.35;54.75;100154.56;4962571;28;20457;-75
2022/04/21 07:36:34;;;;;;;6.40;4.13;;;;;;;9.96;56.02;100150.03;4985702;28;21153;-75
2022/04/21 07:39:01;;;;;;;11.83;4.37;;;;;;;9.40;56.68;100158.59;4980008;28;20451;-74
2022/04/21 07:41:28;;;;;;;5.17;4.63;;;;;;;9.45;57.44;100163.53;4981401;28;21171;-74
2022/04/21 07:43:54;;;;;;;5.73;4.27;;;;;;;8.65;59.76;100152.63;4980984;28;20582;-75
2022/04/21 07:46:21;;;;;;;7.60;4.53;;;;;;;8.70;59.60;100154.88;4980522;28;20480;-75
2022/04/21 07:51:33;;;;;;;5.77;4.43;;;;;;;8.75;59.57;100161.53;4964494;28;20483;-76
2022/04/21 07:53:59;;;;;;;5.30;4.37;;;;;;;8.99;59.16;100163.91;4981293;28;20468;-76
2022/04/21 07:56:27;;;;;;;6.60;4.60;;;;;;;8.89;59.61;100162.16;4981462;28;20487;-75
2022/04/21 07:58:53;;;;;;;7.77;5.00;;;;;;;8.96;59.19;100160.69;4981333;28;20279;-75
2022/04/21 08:01:20;;;;;;;7.40;4.30;;;;;;;8.70;59.81;100169.09;4980242;28;20525;-75
2022/04/21 08:03:47;;;;;;;5.10;4.20;;;;;;;8.63;60.12;100166.09;4982086;28;20856;-76
2022/04/21 08:06:15;;;;;;;7.83;4.70;;;;;;;8.28;61.25;100150.34;4981016;28;20476;-76
2022/04/21 08:08:41;;;;;;;5.03;4.50;;;;;;;8.42;61.27;100160.75;4982269;28;20488;-75
2022/04/21 08:11:08;;;;;;;6.17;4.87;;;;;;;8.86;60.40;100163.28;4980759;28;20499;-75
2022/04/21 08:13:35;;;;;;;7.80;4.93;;;;;;;9.04;59.56;100161.69;4981074;28;20445;-75
2022/04/21 08:16:02;;;;;;;6.07;4.70;;;;;;;9.29;58.97;100164.03;4980762;28;20488;-76
2022/04/21 08:18:28;;;;;;;8.23;5.23;;;;;;;9.00;59.59;100167.44;4982271;28;20452;-75
2022/04/21 08:20:58;;;;;;;7.17;5.10;;;;;;;9.07;59.74;100162.41;4965442;28;20536;-76
2022/04/21 08:23:26;;;;;;;10.50;6.33;;;;;;;8.79;59.96;100162.13;4963845;29;20875;-78
2022/04/21 08:34:21;;;;;;;6.97;5.07;;;;;;;9.59;58.82;100157.81;4962334;29;20464;-75
2022/04/21 08:36:47;;;;;;;6.13;4.53;;;;;;;9.64;57.89;100147.59;4966377;28;20507;-75
2022/04/21 08:39:15;;;;;;;7.13;5.67;;;;;;;9.41;58.41;100153.13;4981870;28;20456;-74
2022/04/21 08:41:49;;;;;;;7.57;5.13;;;;;;;9.82;56.97;100149.56;4981207;28;20491;-75
2022/04/21 08:44:19;;;;;;;6.23;4.73;;;;;;;10.14;56.24;100147.50;4980501;28;21033;-74
2022/04/21 08:46:46;;;;;;;7.47;5.60;;;;;;;10.27;56.68;100157.06;4975793;28;20484;-74
2022/04/21 08:49:15;;;;;;;7.37;5.60;;;;;;;10.02;56.08;100151.28;4963099;29;20484;-74
2022/04/21 08:51:42;;;;;;;9.40;4.73;;;;;;;10.31;55.14;100142.41;4966131;28;20472;-75
2022/04/21 08:54:08;;;;;;;6.27;4.97;;;;;;;10.33;55.40;100146.69;4981921;28;20464;-75
2022/04/21 08:56:36;;;;;;;6.50;5.50;;;;;;;10.16;56.40;100148.19;4977589;28;20481;-74
2022/04/21 08:59:03;;;;;;;9.77;6.00;;;;;;;10.64;55.29;100146.53;4961805;29;20457;-75
2022/04/21 09:01:30;;;;;;;9.73;5.23;;;;;;;11.44;53.48;100149.63;4960778;28;20496;-75
2022/04/21 09:03:56;;;;;;;6.00;5.40;;;;;;;12.36;49.93;100153.09;4961806;29;20445;-75
2022/04/21 09:06:24;;;;;;;8.33;5.33;;;;;;;13.21;47.76;100147.13;4961509;28;20513;-76
2022/04/21 09:09:16;;;;;;;9.23;4.40;;;;;;;12.74;47.15;100153.72;4981184;28;20474;-75
2022/04/21 09:11:45;;;;;;;6.97;4.83;;;;;;;15.53;43.12;100147.91;4980530;28;20467;-75
2022/04/21 09:14:20;;;;;;;5.83;4.60;;;;;;;15.46;42.73;100138.00;4980043;28;20432;-77
2022/04/21 09:16:47;;;;;;;6.90;5.17;;;;;;;13.20;46.38;100150.81;4975247;28;20492;-76
2022/04/21 09:19:13;;;;;;;6.00;4.87;;;;;;;12.96;48.21;100159.56;4969058;28;20824;-75
2022/04/21 09:21:41;;;;;;;6.10;5.10;;;;;;;11.20;52.28;100157.34;4959682;28;20497;-76
2022/04/21 09:24:22;;;;;;;7.77;4.80;;;;;;;11.10;54.16;100152.00;4962540;28;20437;-75
2022/04/21 09:26:51;;;;;;;7.63;5.63;;;;;;;11.45;53.43;100158.47;4970748;28;20507;-74
2022/04/21 09:29:24;;;;;;;5.60;4.63;;;;;;;12.29;52.25;100153.84;4963382;28;20634;-76
2022/04/21 09:31:56;;;;;;;8.43;5.67;;;;;;;13.08;49.58;100155.59;4963350;28;20564;-76
2022/04/21 09:34:22;;;;;;;7.30;5.07;;;;;;;13.33;49.14;100155.75;4964509;29;20446;-75
2022/04/21 09:36:49;;;;;;;6.57;4.50;;;;;;;13.35;48.05;100149.25;4969589;28;20484;-75
2022/04/21 09:39:16;;;;;;;6.33;5.57;;;;;;;13.93;46.89;100141.34;4983665;28;20491;-75
2022/04/21 09:41:44;;;;;;;6.83;5.73;;;;;;;14.00;46.73;100161.19;4983145;28;20487;-75
2022/04/21 09:46:55;;;;;;;5.57;4.50;;;;;;;15.81;43.15;100145.63;4974429;28;20487;-75
2022/04/21 09:49:34;;;;;;;7.60;5.53;;;;;;;17.14;39.41;100146.22;4964488;29;20453;-74
2022/04/21 09:52:01;;;;;;;8.13;4.60;;;;;;;17.67;39.03;100151.47;4970432;28;20554;-76
2022/04/21 09:54:30;;;;;;;6.70;4.50;;;;;;;17.47;38.62;100156.63;4984121;28;20511;-75
2022/04/21 09:56:57;;;;;;;6.23;5.57;;;;;;;16.93;40.06;100155.03;4974133;28;20480;-75
2022/04/21 09:59:25;;;;;;;7.37;4.93;;;;;;;18.05;37.66;100149.44;4963917;29;20485;-75
2022/04/21 10:01:52;;;;;;;7.33;5.13;;;;;;;19.55;35.24;100139.31;4962911;28;20512;-75
2022/04/21 10:04:19;;;;;;;7.20;4.63;;;;;;;19.12;36.22;100138.69;4963172;29;20434;-75
2022/04/21 10:06:47;;;;;;;4.80;4.17;;;;;;;19.20;35.82;100138.53;4967515;28;20559;-75
2022/04/21 10:09:16;;;;;;;6.13;4.47;;;;;;;18.65;37.48;100140.22;4983084;28;20471;-77
2022/04/21 10:11:43;;;;;;;5.07;4.37;;;;;;;18.99;36.14;100134.00;4981715;28;20475;-75
2022/04/21 10:14:12;;;;;;;6.43;5.10;;;;;;;18.42;35.55;100128.56;4983072;28;20444;-75
2022/04/21 10:16:42;;;;;;;7.70;4.80;;;;;;;17.64;37.94;100139.16;4978184;28;20696;-76
2022/04/21 10:19:10;;;;;;;5.10;4.60;;;;;;;16.66;40.17;100132.16;4982070;28;20460;-78
2022/04/21 10:21:39;;;;;;;5.70;5.10;;;;;;;16.44;40.64;100128.47;4981437;28;20511;-76
2022/04/21 10:24:07;;;;;;;4.80;4.30;;;;;;;14.82;44.11;100122.72;4982199;28;20433;-77
2022/04/21 10:26:37;;;;;;;8.07;5.53;;;;;;;16.12;43.44;100123.16;4977141;28;20690;-77
2022/04/21 10:29:14;;;;;;;6.20;4.97;;;;;;;16.43;41.18;100126.81;4970229;28;20449;-76
2022/04/21 10:31:47;;;;;;;8.03;4.93;;;;;;;15.58;43.28;100117.75;4982648;28;20483;-77
2022/04/21 10:34:29;;;;;;;4.43;4.03;;;;;;;16.35;41.61;100119.59;4984064;28;20495;-77
2022/04/21 10:37:06;;;;;;;6.90;4.07;;;;;;;15.72;42.80;100116.16;4980811;28;20551;-77
2022/04/21 10:39:33;;;;;;;6.53;5.17;;;;;;;15.11;44.17;100111.38;4981895;28;20444;-74
2022/04/21 10:42:14;;;;;;;5.80;4.10;;;;;;;15.40;43.66;100112.63;4980328;28;20512;-75
2022/04/21 10:44:43;;;;;;;6.60;5.03;;;;;;;16.23;41.70;100111.13;4981330;28;20503;-75
2022/04/21 10:47:32;;;;;;;4.67;4.17;;;;;;;16.24;42.25;100107.38;4972574;28;20481;-76
2022/04/21 10:50:01;;;;;;;6.00;4.90;;;;;;;15.59;43.55;100106.78;4975503;28;20453;-76
2022/04/21 10:58:50;;;;;;;6.33;5.20;;;;;;;14.96;45.02;100116.63;4979616;28;20451;-75
2022/04/21 11:01:22;;;;;;;4.80;4.40;;;;;;;15.11;44.87;100116.75;4980938;28;20484;-75
2022/04/21 11:04:17;;;;;;;5.27;4.60;;;;;;;14.66;45.66;100110.97;4980654;28;20580;-75
2022/04/21 11:06:46;;;;;;;7.77;4.87;;;;;;;14.69;45.71;100107.94;4981145;28;20496;-75
2022/04/21 11:09:38;;;;;;;6.03;4.80;;;;;;;15.25;44.73;100101.72;4981484;28;20495;-75
2022/04/21 11:12:06;;;;;;;6.20;4.53;;;;;;;15.63;44.43;100102.72;4980617;28;20893;-75
2022/04/21 11:14:34;;;;;;;5.67;5.07;;;;;;;16.17;42.27;100104.56;4971344;28;20461;-75
2022/04/21 11:17:04;;;;;;;7.57;4.93;;;;;;;15.28;44.08;100096.00;4961104;28;20508;-75
2022/04/21 11:19:33;;;;;;;7.80;5.40;;;;;;;15.72;43.14;100091.88;4961771;29;20461;-76
2022/04/21 11:22:01;;;;;;;5.93;5.10;;;;;;;15.79;42.99;100091.00;4961709;28;21001;-75
2022/04/21 11:24:28;;;;;;;7.87;5.30;;;;;;;16.83;41.43;100084.25;4970780;28;20869;-75
2022/04/21 11:26:55;;;;;;;4.63;4.13;;;;;;;16.49;41.40;100107.16;4979523;28;20627;-76
2022/04/21 11:29:22;;;;;;;8.47;5.60;;;;;;;16.85;40.74;100088.44;4981323;28;20496;-76
2022/04/21 11:31:49;;;;;;;7.20;5.60;;;;;;;17.51;40.88;100087.66;4980296;28;20570;-75
2022/04/21 11:34:22;;;;;;;6.50;5.00;;;;;;;17.37;40.94;100083.13;4980487;28;20432;-74
2022/04/21 11:36:53;;;;;;;8.33;5.73;;;;;;;17.22;41.33;100077.72;4980079;28;20484;-74
2022/04/21 11:39:20;;;;;;;6.90;5.80;;;;;;;16.95;41.89;100080.06;4981314;28;20528;-77
2022/04/21 11:41:52;;;;;;;8.37;5.63;;;;;;;17.02;41.46;100081.00;4980404;28;20495;-78
2022/04/21 11:44:22;;;;;;;5.70;5.10;;;;;;;16.75;42.46;100077.91;4980509;28;20568;-77
2022/04/21 11:46:49;;;;;;;7.47;5.00;;;;;;;16.85;41.78;100083.03;4979826;28;20484;-78
2022/04/21 11:49:16;;;;;;;6.53;5.77;;;;;;;16.72;42.27;100062.06;4980265;28;20459;-76
2022/04/21 11:51:44;;;;;;;6.40;5.30;;;;;;;17.11;41.68;100071.75;4963365;28;20470;-85
2022/04/21 11:54:12;;;;;;;7.67;5.80;;;;;;;18.09;40.42;100063.34;4962379;29;20446;-79
2022/04/21 11:56:39;;;;;;;8.83;5.70;;;;;;;18.65;38.92;100056.28;4965325;28;20484;-77
2022/04/21 11:59:07;;;;;;;11.17;6.60;;;;;;;18.46;38.92;100057.81;4981162;28;20863;-80
2022/04/21 12:07:08;;;;;;;8.03;5.23;;;;;;;18.25;39.50;100057.63;4969889;28;20516;-77
2022/04/21 12:09:40;;;;;;;6.97;6.20;;;;;;;17.49;41.39;100068.91;4961498;29;20445;-76
2022/04/21 12:12:08;;;;;;;7.93;5.33;;;;;;;17.93;41.17;100072.53;4960368;28;20564;-79
2022/04/21 12:14:36;;;;;;;7.30;5.77;;;;;;;17.42;41.95;100059.88;4961485;29;20488;-78
2022/04/21 12:17:04;;;;;;;6.77;6.07;;;;;;;17.01;42.57;100067.69;4960250;28;20515;-75
2022/04/21 12:19:33;;;;;;;6.70;5.90;;;;;;;16.68;43.82;100068.88;4961119;29;20453;-76
2022/04/21 12:22:02;;;;;;;9.83;5.87;;;;;;;16.80;43.82;100065.69;4960804;28;20497;-75
2022/04/21 12:24:31;;;;;;;10.60;6.70;;;;;;;17.22;42.20;100051.56;4966758;28;20495;-76
2022/04/21 12:27:00;;;;;;;6.63;5.73;;;;;;;17.61;42.74;100044.09;4979579;28;20472;-75
2022/04/21 12:29:29;;;;;;;6.13;5.20;;;;;;;17.77;42.30;100043.84;4980565;28;20480;-75
2022/04/21 12:31:56;;;;;;;9.53;5.83;;;;;;;16.72;44.03;100031.56;4978413;28;20489;-76